createdAt,value
2023-05-13T00:01:20.929Z,100.00
2023-05-13T00:03:48.522Z,100.00
2023-05-13T00:06:15.965Z,100.00
2023-05-13T00:08:43.382Z,100.00
2023-05-13T00:11:11.073Z,100.00
2023-05-13T00:13:38.468Z,100.00
2023-05-13T00:16:05.732Z,100.00
2023-05-13T00:18:33.462Z,100.00
2023-05-13T00:21:00.748Z,100.00
2023-05-13T00:23:27.939Z,100.00
2023-05-13T00:25:55.661Z,100.00
2023-05-13T00:28:22.845Z,100.00
2023-05-13T00:30:50.482Z,100.00
2023-05-13T00:33:17.932Z,100.00
2023-05-13T00:35:45.441Z,100.00
2023-05-13T00:38:12.665Z,100.00
2023-05-13T00:40:40.878Z,100.00
2023-05-13T00:43:08.153Z,100.00
2023-05-13T00:45:37.301Z,100.00
2023-05-13T00:48:08.498Z,100.00
2023-05-13T00:50:35.813Z,100.00
2023-05-13T00:53:04.096Z,100.00
2023-05-13T00:55:31.707Z,100.00
2023-05-13T00:57:58.965Z,100.00
2023-05-13T01:00:26.325Z,100.00
2023-05-13T01:03:06.391Z,100.00
2023-05-13T01:05:58.177Z,100.00
2023-05-13T01:08:51.861Z,100.00
2023-05-13T01:11:28.479Z,100.00
2023-05-13T01:14:25.788Z,100.00
2023-05-13T01:17:00.360Z,100.00
2023-05-13T01:19:52.961Z,100.00
2023-05-13T01:22:20.154Z,100.00
2023-05-13T01:24:47.894Z,100.00
2023-05-13T01:27:15.076Z,100.00
2023-05-13T01:29:42.623Z,100.00
2023-05-13T01:32:11.607Z,100.00
2023-05-13T01:34:40.050Z,100.00
2023-05-13T01:37:07.818Z,100.00
2023-05-13T01:39:37.742Z,100.00
2023-05-13T01:42:05.731Z,100.00
2023-05-13T01:44:32.999Z,100.00
2023-05-13T01:47:00.448Z,100.00
2023-05-13T01:49:27.726Z,100.00
2023-05-13T01:51:54.869Z,100.00
2023-05-13T01:54:22.485Z,100.00
2023-05-13T01:56:50.722Z,100.00
2023-05-13T01:59:18.176Z,100.00
2023-05-13T02:01:45.870Z,100.00
2023-05-13T02:04:13.369Z,100.00
2023-05-13T02:06:41.359Z,100.00
2023-05-13T02:09:08.707Z,100.00
2023-05-13T02:11:38.477Z,100.00
2023-05-13T02:14:05.838Z,100.00
2023-05-13T02:16:34.878Z,100.00
2023-05-13T02:19:06.607Z,100.00
2023-05-13T02:21:34.117Z,100.00
2023-05-13T02:24:01.729Z,100.00
2023-05-13T02:26:29.100Z,100.00
2023-05-13T02:28:56.549Z,100.00
2023-05-13T02:31:23.724Z,100.00
2023-05-13T02:33:50.870Z,100.00
2023-05-13T02:36:18.331Z,100.00
2023-05-13T02:38:46.312Z,100.00
2023-05-13T02:41:14.187Z,100.00
2023-05-13T02:43:42.612Z,100.00
2023-05-13T02:46:10.102Z,100.00
2023-05-13T02:48:37.180Z,100.00
2023-05-13T02:51:04.724Z,100.00
2023-05-13T02:53:32.090Z,100.00
2023-05-13T02:55:59.606Z,100.00
2023-05-13T02:58:27.033Z,100.00
2023-05-13T03:00:54.680Z,100.00
2023-05-13T03:03:23.509Z,100.00
2023-05-13T03:05:51.139Z,100.00
2023-05-13T03:08:18.369Z,100.00
2023-05-13T03:10:45.486Z,100.00
2023-05-13T03:13:13.014Z,100.00
2023-05-13T03:15:42.756Z,100.00
2023-05-13T03:18:11.649Z,100.00
2023-05-13T03:20:39.383Z,100.00
2023-05-13T03:23:06.513Z,100.00
2023-05-13T03:25:33.913Z,100.00
2023-05-13T03:28:03.383Z,100.00
2023-05-13T03:30:31.162Z,100.00
2023-05-13T03:32:58.705Z,100.00
2023-05-13T03:35:26.221Z,100.00
2023-05-13T03:37:53.786Z,100.00
2023-05-13T03:40:21.458Z,100.00
2023-05-13T03:42:50.704Z,100.00
2023-05-13T03:45:18.508Z,100.00
2023-05-13T03:47:47.573Z,100.00
2023-05-13T03:50:15.467Z,100.00
2023-05-13T03:52:43.977Z,100.00
2023-05-13T03:55:15.074Z,100.00
2023-05-13T03:57:45.213Z,100.00
2023-05-13T04:00:13.241Z,100.00
2023-05-13T04:02:41.857Z,100.00
2023-05-13T04:05:09.883Z,100.00
2023-05-13T04:07:37.057Z,100.00
2023-05-13T04:10:04.498Z,100.00
2023-05-13T04:12:33.433Z,100.00
2023-05-13T04:15:01.142Z,100.00
2023-05-13T04:17:28.955Z,100.00
2023-05-13T04:19:56.581Z,100.00
2023-05-13T04:22:24.645Z,100.00
2023-05-13T04:24:56.569Z,100.00
2023-05-13T04:27:24.566Z,100.00
2023-05-13T04:29:52.451Z,100.00
2023-05-13T04:32:23.214Z,100.00
2023-05-13T04:34:52.337Z,100.00
2023-05-13T04:37:20.303Z,100.00
2023-05-13T04:39:48.566Z,100.00
2023-05-13T04:42:16.781Z,100.00
2023-05-13T04:44:44.036Z,100.00
2023-05-13T04:47:11.574Z,100.00
2023-05-13T04:49:39.069Z,100.00
2023-05-13T04:52:07.058Z,100.00
2023-05-13T04:54:35.984Z,100.00
2023-05-13T04:57:03.802Z,100.00
2023-05-13T04:59:31.185Z,100.00
2023-05-13T05:01:58.510Z,100.00
2023-05-13T05:04:27.912Z,100.00
2023-05-13T05:06:55.887Z,100.00
2023-05-13T05:09:23.066Z,100.00
2023-05-13T05:11:51.362Z,100.00
2023-05-13T05:14:19.179Z,100.00
2023-05-13T05:16:46.504Z,100.00
2023-05-13T05:19:15.044Z,100.00
2023-05-13T05:21:42.627Z,100.00
2023-05-13T05:24:10.109Z,100.00
2023-05-13T05:26:37.541Z,100.00
2023-05-13T05:29:06.264Z,100.00
2023-05-13T05:31:33.745Z,100.00
2023-05-13T05:34:01.856Z,100.00
2023-05-13T05:36:29.875Z,100.00
2023-05-13T05:38:57.050Z,100.00
2023-05-13T05:41:26.128Z,100.00
2023-05-13T05:43:53.325Z,100.00
2023-05-13T05:46:20.677Z,100.00
2023-05-13T05:48:49.253Z,100.00
2023-05-13T05:51:16.696Z,100.00
2023-05-13T05:53:44.464Z,100.00
2023-05-13T05:56:12.102Z,100.00
2023-05-13T05:58:39.364Z,100.00
2023-05-13T06:01:06.610Z,100.00
2023-05-13T06:03:34.070Z,100.00
2023-05-13T06:06:01.434Z,100.00
2023-05-13T06:08:31.091Z,100.00
2023-05-13T06:10:58.967Z,100.00
2023-05-13T06:13:26.292Z,100.00
2023-05-13T06:15:53.599Z,100.00
2023-05-13T06:18:21.174Z,100.00
2023-05-13T06:20:48.308Z,100.00
2023-05-13T06:23:15.427Z,100.00
2023-05-13T06:25:42.922Z,100.00
2023-05-13T06:28:12.134Z,100.00
2023-05-13T06:30:39.345Z,100.00
2023-05-13T06:33:10.503Z,100.00
2023-05-13T06:35:38.078Z,100.00
2023-05-13T06:38:06.080Z,100.00
2023-05-13T06:40:34.552Z,100.00
2023-05-13T06:43:02.129Z,100.00
2023-05-13T06:45:29.383Z,100.00
2023-05-13T06:47:57.851Z,100.00
2023-05-13T06:50:27.613Z,100.00
2023-05-13T06:52:55.215Z,100.00
2023-05-13T06:55:22.654Z,100.00
2023-05-13T06:57:49.811Z,100.00
2023-05-13T07:00:17.842Z,100.00
2023-05-13T07:02:48.096Z,100.00
2023-05-13T07:05:16.599Z,100.00
2023-05-13T07:07:43.841Z,100.00
2023-05-13T07:10:12.078Z,100.00
2023-05-13T07:12:39.299Z,100.00
2023-05-13T07:15:07.192Z,100.00
2023-05-13T07:17:34.832Z,100.00
2023-05-13T07:20:02.408Z,100.00
2023-05-13T07:22:29.632Z,100.00
2023-05-13T07:24:57.264Z,100.00
2023-05-13T07:27:24.424Z,100.00
2023-05-13T07:29:51.511Z,100.00
2023-05-13T07:32:19.048Z,100.00
2023-05-13T07:34:46.390Z,100.00
2023-05-13T07:37:13.516Z,100.00
2023-05-13T07:39:41.001Z,100.00
2023-05-13T07:42:08.239Z,100.00
2023-05-13T07:44:35.505Z,100.00
2023-05-13T07:47:03.096Z,100.00
2023-05-13T07:49:30.323Z,100.00
2023-05-13T07:51:57.414Z,100.00
2023-05-13T07:54:24.913Z,100.00
2023-05-13T07:56:52.167Z,100.00
2023-05-13T07:59:19.469Z,100.00
2023-05-13T08:01:47.078Z,100.00
2023-05-13T08:04:14.883Z,100.00
2023-05-13T08:06:42.227Z,100.00
2023-05-13T08:09:12.350Z,100.00
2023-05-13T08:11:40.074Z,100.00
2023-05-13T08:14:07.641Z,100.00
2023-05-13T08:16:37.392Z,100.00
2023-05-13T08:19:05.168Z,100.00
2023-05-13T08:21:32.814Z,100.00
2023-05-13T08:24:00.028Z,100.00
2023-05-13T08:26:27.835Z,100.00
2023-05-13T08:28:55.372Z,100.00
2023-05-13T08:31:24.426Z,100.00
2023-05-13T08:33:56.236Z,100.00
2023-05-13T08:36:29.926Z,100.00
2023-05-13T08:39:05.503Z,100.00
2023-05-13T08:41:34.546Z,100.00
2023-05-13T08:44:05.036Z,100.00
2023-05-13T08:46:34.026Z,100.00
2023-05-13T08:49:04.409Z,100.00
2023-05-13T08:51:32.224Z,100.00
2023-05-13T08:54:01.128Z,100.00
2023-05-13T08:56:29.965Z,100.00
2023-05-13T08:58:57.245Z,100.00
2023-05-13T09:01:26.564Z,100.00
2023-05-13T09:04:04.024Z,100.00
2023-05-13T09:06:31.342Z,100.00
2023-05-13T09:08:59.315Z,100.00
2023-05-13T09:11:26.903Z,100.00
2023-05-13T09:14:02.086Z,100.00
2023-05-13T09:16:30.105Z,100.00
2023-05-13T09:19:03.425Z,100.00
2023-05-13T09:21:38.240Z,100.00
2023-05-13T09:24:18.960Z,100.00
2023-05-13T09:26:50.584Z,100.00
2023-05-13T09:29:23.107Z,100.00
2023-05-13T09:31:56.488Z,100.00
2023-05-13T09:34:33.666Z,100.00
2023-05-13T09:37:08.857Z,100.00
2023-05-13T09:39:41.681Z,100.00
2023-05-13T09:42:17.250Z,100.00
2023-05-13T09:44:48.989Z,100.00
2023-05-13T09:47:17.513Z,100.00
2023-05-13T09:49:46.140Z,97.69
2023-05-13T09:52:17.036Z,100.00
2023-05-13T09:54:45.127Z,98.22
2023-05-13T09:57:13.793Z,99.64
2023-05-13T09:59:41.719Z,100.00
2023-05-13T10:02:35.417Z,100.00
2023-05-13T10:05:10.373Z,100.00
2023-05-13T10:07:38.878Z,100.00
2023-05-13T10:10:15.418Z,100.00
2023-05-13T10:12:43.255Z,100.00
2023-05-13T10:15:11.176Z,100.00
2023-05-13T10:17:38.726Z,100.00
2023-05-13T10:20:06.862Z,100.00
2023-05-13T10:22:37.311Z,100.00
2023-05-13T10:25:05.330Z,100.00
2023-05-13T10:27:34.040Z,100.00
2023-05-13T10:30:05.920Z,100.00
2023-05-13T10:32:33.343Z,100.00
2023-05-13T10:35:05.740Z,100.00
2023-05-13T10:37:55.501Z,100.00
2023-05-13T10:40:23.193Z,100.00
2023-05-13T10:43:09.715Z,100.00
2023-05-13T10:45:38.180Z,100.00
2023-05-13T10:48:11.161Z,100.00
2023-05-13T10:50:39.555Z,100.00
2023-05-13T10:53:19.575Z,100.00
2023-05-13T10:55:52.432Z,100.00
2023-05-13T10:58:22.501Z,100.00
2023-05-13T11:00:50.992Z,100.00
2023-05-13T11:03:18.475Z,100.00
2023-05-13T11:05:48.509Z,100.00
2023-05-13T11:08:38.926Z,100.00
2023-05-13T11:11:23.022Z,100.00
2023-05-13T11:13:53.365Z,100.00
2023-05-13T11:16:22.002Z,100.00
2023-05-13T11:18:49.776Z,100.00
2023-05-13T11:21:17.197Z,100.00
2023-05-13T11:23:56.404Z,100.00
2023-05-13T11:26:23.843Z,100.00
2023-05-13T11:29:05.540Z,100.00
2023-05-13T11:31:50.236Z,100.00
2023-05-13T11:34:21.200Z,100.00
2023-05-13T11:36:57.325Z,100.00
2023-05-13T11:39:28.836Z,100.00
2023-05-13T11:42:01.804Z,100.00
2023-05-13T11:44:29.830Z,100.00
2023-05-13T11:46:59.738Z,100.00
2023-05-13T11:49:33.725Z,100.00
2023-05-13T11:52:02.686Z,100.00
2023-05-13T11:54:30.091Z,100.00
2023-05-13T11:56:57.502Z,100.00
2023-05-13T11:59:25.871Z,100.00
2023-05-13T12:02:01.544Z,100.00
2023-05-13T12:04:30.495Z,100.00
2023-05-13T12:06:58.131Z,100.00
2023-05-13T12:09:25.890Z,100.00
2023-05-13T12:11:53.961Z,100.00
2023-05-13T12:14:21.695Z,100.00
2023-05-13T12:16:49.011Z,100.00
2023-05-13T12:19:16.802Z,100.00
2023-05-13T12:21:44.667Z,100.00
2023-05-13T12:24:22.203Z,100.00
2023-05-13T12:26:50.168Z,100.00
2023-05-13T12:29:22.259Z,100.00
2023-05-13T12:32:05.994Z,100.00
2023-05-13T12:34:34.725Z,100.00
2023-05-13T12:37:13.071Z,100.00
2023-05-13T12:39:41.942Z,100.00
2023-05-13T12:42:17.012Z,100.00
2023-05-13T12:44:45.338Z,100.00
2023-05-13T12:47:14.405Z,100.00
2023-05-13T12:49:52.681Z,100.00
2023-05-13T12:52:21.267Z,100.00
2023-05-13T12:54:48.656Z,100.00
2023-05-13T12:57:17.539Z,100.00
2023-05-13T12:59:47.846Z,100.00
2023-05-13T13:02:15.679Z,100.00
2023-05-13T13:04:42.936Z,100.00
2023-05-13T13:07:12.783Z,100.00
2023-05-13T13:09:40.470Z,100.00
2023-05-13T13:12:07.774Z,100.00
2023-05-13T13:14:35.394Z,100.00
2023-05-13T13:17:02.642Z,100.00
2023-05-13T13:19:29.938Z,100.00
2023-05-13T13:21:57.767Z,100.00
2023-05-13T13:24:25.264Z,100.00
2023-05-13T13:26:54.501Z,100.00
2023-05-13T13:29:22.513Z,99.58
2023-05-13T13:31:49.870Z,98.00
2023-05-13T13:34:17.213Z,96.28
2023-05-13T13:36:44.924Z,99.13
2023-05-13T13:39:12.746Z,99.57
2023-05-13T13:41:40.281Z,98.21
2023-05-13T13:44:08.238Z,100.00
2023-05-13T13:46:35.663Z,100.00
2023-05-13T13:49:07.773Z,100.00
2023-05-13T13:51:44.225Z,100.00
2023-05-13T13:54:11.524Z,100.00
2023-05-13T13:56:42.011Z,100.00
2023-05-13T13:59:12.466Z,100.00
2023-05-13T14:01:40.554Z,99.80
2023-05-13T14:04:13.288Z,98.21
2023-05-13T14:06:41.050Z,100.00
2023-05-13T14:09:10.360Z,100.00
2023-05-13T14:11:37.830Z,98.00
2023-05-13T14:14:08.427Z,98.12
2023-05-13T14:16:36.674Z,97.21
2023-05-13T14:19:06.726Z,97.83
2023-05-13T14:21:36.608Z,100.00
2023-05-13T14:24:04.529Z,100.00
2023-05-13T14:26:31.932Z,99.93
2023-05-13T14:28:59.323Z,99.86
2023-05-13T14:31:28.297Z,100.00
2023-05-13T14:33:55.747Z,99.00
2023-05-13T14:36:27.028Z,99.52
2023-05-13T14:38:54.818Z,99.04
2023-05-13T14:41:23.254Z,98.75
2023-05-13T14:43:51.249Z,96.28
2023-05-13T14:46:18.868Z,97.23
2023-05-13T14:48:46.368Z,97.57
2023-05-13T14:51:13.629Z,98.31
2023-05-13T14:53:42.727Z,95.49
2023-05-13T14:56:10.225Z,97.81
2023-05-13T14:58:37.673Z,98.77
2023-05-13T15:01:05.422Z,100.00
2023-05-13T15:03:33.040Z,100.00
2023-05-13T15:06:00.425Z,99.40
2023-05-13T15:08:28.088Z,99.75
2023-05-13T15:10:55.320Z,100.00
2023-05-13T15:13:22.573Z,99.31
2023-05-13T15:15:50.408Z,99.84
2023-05-13T15:18:17.725Z,100.00
2023-05-13T15:20:45.479Z,100.00
2023-05-13T15:23:13.343Z,99.69
2023-05-13T15:25:40.848Z,100.00
2023-05-13T15:28:08.224Z,100.00
2023-05-13T15:30:36.627Z,100.00
2023-05-13T15:33:04.397Z,100.00
2023-05-13T15:35:31.693Z,100.00
2023-05-13T15:38:00.032Z,100.00
2023-05-13T15:40:30.300Z,100.00
2023-05-13T15:42:57.526Z,100.00
2023-05-13T15:45:25.063Z,100.00
2023-05-13T15:47:52.683Z,100.00
2023-05-13T15:50:20.168Z,100.00
2023-05-13T15:52:48.030Z,100.00
2023-05-13T15:55:15.307Z,100.00
2023-05-13T15:57:42.536Z,100.00
2023-05-13T16:00:13.738Z,100.00
2023-05-13T16:02:45.195Z,100.00
2023-05-13T16:05:15.296Z,100.00
2023-05-13T16:07:43.061Z,100.00
2023-05-13T16:10:12.280Z,100.00
2023-05-13T16:12:39.705Z,100.00
2023-05-13T16:15:07.899Z,100.00
2023-05-13T16:17:35.934Z,100.00
2023-05-13T16:20:04.180Z,100.00
2023-05-13T16:22:38.220Z,100.00
2023-05-13T16:25:07.356Z,100.00
2023-05-13T16:27:36.066Z,100.00
2023-05-13T16:30:08.339Z,100.00
2023-05-13T16:32:37.462Z,100.00
2023-05-13T16:35:05.721Z,100.00
2023-05-13T16:37:35.180Z,100.00
2023-05-13T16:40:03.437Z,100.00
2023-05-13T16:42:30.760Z,100.00
2023-05-13T16:44:58.103Z,100.00
2023-05-13T16:47:25.848Z,100.00
2023-05-13T16:49:53.579Z,100.00
2023-05-13T16:52:21.157Z,100.00
2023-05-13T16:54:48.964Z,100.00
2023-05-13T16:57:16.721Z,100.00
2023-05-13T16:59:44.169Z,100.00
2023-05-13T17:02:11.687Z,100.00
2023-05-13T17:04:39.411Z,100.00
2023-05-13T17:07:10.009Z,100.00
2023-05-13T17:09:37.975Z,100.00
2023-05-13T17:12:05.734Z,100.00
2023-05-13T17:14:33.518Z,100.00
2023-05-13T17:17:06.037Z,100.00
2023-05-13T17:19:34.131Z,100.00
2023-05-13T17:22:02.000Z,100.00
2023-05-13T17:24:29.864Z,100.00
2023-05-13T17:26:57.411Z,100.00
2023-05-13T17:29:27.518Z,100.00
2023-05-13T17:31:55.425Z,100.00
2023-05-13T17:34:23.084Z,100.00
2023-05-13T17:36:51.012Z,100.00
2023-05-13T17:39:18.516Z,100.00
2023-05-13T17:41:46.675Z,100.00
2023-05-13T17:44:15.240Z,100.00
2023-05-13T17:46:45.425Z,100.00
2023-05-13T17:49:12.657Z,100.00
2023-05-13T17:51:41.974Z,100.00
2023-05-13T17:54:11.372Z,100.00
2023-05-13T17:56:38.773Z,100.00
2023-05-13T17:59:07.892Z,100.00
2023-05-13T18:01:35.296Z,100.00
2023-05-13T18:04:03.063Z,100.00
2023-05-13T18:06:30.272Z,100.00
2023-05-13T18:08:57.872Z,100.00
2023-05-13T18:11:26.241Z,100.00
2023-05-13T18:13:53.690Z,100.00
2023-05-13T18:16:21.409Z,100.00
2023-05-13T18:18:49.309Z,100.00
2023-05-13T18:21:16.694Z,100.00
2023-05-13T18:23:46.764Z,100.00
2023-05-13T18:26:14.325Z,100.00
2023-05-13T18:28:42.465Z,100.00
2023-05-13T18:31:09.934Z,100.00
2023-05-13T18:33:38.403Z,100.00
2023-05-13T18:36:05.985Z,100.00
2023-05-13T18:38:33.509Z,100.00
2023-05-13T18:41:03.371Z,100.00
2023-05-13T18:43:30.770Z,100.00
2023-05-13T18:45:58.271Z,100.00
2023-05-13T18:48:25.865Z,100.00
2023-05-13T18:50:55.638Z,100.00
2023-05-13T18:53:22.908Z,100.00
2023-05-13T18:55:50.611Z,100.00
2023-05-13T18:58:18.180Z,100.00
2023-05-13T19:00:46.026Z,100.00
2023-05-13T19:03:13.889Z,100.00
2023-05-13T19:05:41.797Z,100.00
2023-05-13T19:08:09.165Z,100.00
2023-05-13T19:10:39.905Z,100.00
2023-05-13T19:13:07.984Z,100.00
2023-05-13T19:15:35.723Z,100.00
2023-05-13T19:18:03.822Z,100.00
2023-05-13T19:20:31.365Z,100.00
2023-05-13T19:22:58.738Z,100.00
2023-05-13T19:25:26.234Z,100.00
2023-05-13T19:27:53.535Z,100.00
2023-05-13T19:30:21.024Z,100.00
2023-05-13T19:32:49.191Z,100.00
2023-05-13T19:35:16.997Z,100.00
2023-05-13T19:37:44.535Z,100.00
2023-05-13T19:40:12.283Z,100.00
2023-05-13T19:42:39.788Z,100.00
2023-05-13T19:45:08.043Z,100.00
2023-05-13T19:47:35.680Z,100.00
2023-05-13T19:50:03.573Z,100.00
2023-05-13T19:52:30.978Z,100.00
2023-05-13T19:54:58.763Z,100.00
2023-05-13T19:57:28.640Z,100.00
2023-05-13T19:59:58.899Z,100.00
2023-05-13T20:02:26.350Z,100.00
2023-05-13T20:04:54.204Z,100.00
2023-05-13T20:07:21.483Z,100.00
2023-05-13T20:09:48.888Z,100.00
2023-05-13T20:12:16.598Z,100.00
2023-05-13T20:14:45.331Z,100.00
2023-05-13T20:17:17.408Z,100.00
2023-05-13T20:19:47.478Z,100.00
2023-05-13T20:22:16.377Z,100.00
2023-05-13T20:24:46.541Z,100.00
2023-05-13T20:27:14.382Z,100.00
2023-05-13T20:29:46.950Z,100.00
2023-05-13T20:32:18.500Z,100.00
2023-05-13T20:34:45.827Z,100.00
2023-05-13T20:37:14.269Z,100.00
2023-05-13T20:39:42.228Z,100.00
2023-05-13T20:42:11.043Z,100.00
2023-05-13T20:44:38.670Z,100.00
2023-05-13T20:47:06.929Z,100.00
2023-05-13T20:49:34.358Z,100.00
2023-05-13T20:52:07.678Z,100.00
2023-05-13T20:54:37.544Z,100.00
2023-05-13T20:57:05.219Z,100.00
2023-05-13T20:59:32.712Z,100.00
2023-05-13T21:02:00.464Z,100.00
2023-05-13T21:04:28.049Z,100.00
2023-05-13T21:06:55.239Z,100.00
2023-05-13T21:09:22.800Z,100.00
2023-05-13T21:11:50.238Z,100.00
2023-05-13T21:14:17.421Z,100.00
2023-05-13T21:16:45.013Z,100.00
2023-05-13T21:19:22.078Z,100.00
2023-05-13T21:21:49.938Z,100.00
2023-05-13T21:24:18.642Z,100.00
2023-05-13T21:26:46.694Z,100.00
2023-05-13T21:29:14.143Z,100.00
2023-05-13T21:31:44.602Z,100.00
2023-05-13T21:34:12.121Z,100.00
2023-05-13T21:36:39.905Z,100.00
2023-05-13T21:39:09.478Z,100.00
2023-05-13T21:41:36.938Z,100.00
2023-05-13T21:44:04.706Z,100.00
2023-05-13T21:46:32.112Z,100.00
2023-05-13T21:49:00.576Z,100.00
2023-05-13T21:51:28.760Z,100.00
2023-05-13T21:53:56.235Z,100.00
2023-05-13T21:56:23.520Z,100.00
2023-05-13T21:58:51.150Z,100.00
2023-05-13T22:01:18.551Z,100.00
2023-05-13T22:03:46.638Z,100.00
2023-05-13T22:06:14.507Z,100.00
2023-05-13T22:08:41.960Z,100.00
2023-05-13T22:11:09.845Z,100.00
2023-05-13T22:13:38.296Z,100.00
2023-05-13T22:16:05.895Z,100.00
2023-05-13T22:18:33.778Z,100.00
2023-05-13T22:21:01.514Z,100.00
2023-05-13T22:23:28.743Z,100.00
2023-05-13T22:25:56.330Z,100.00
2023-05-13T22:28:23.452Z,100.00
2023-05-13T22:30:51.711Z,100.00
2023-05-13T22:33:19.481Z,100.00
2023-05-13T22:35:47.310Z,100.00
2023-05-13T22:38:14.736Z,100.00
2023-05-13T22:40:42.440Z,100.00
2023-05-13T22:43:09.537Z,100.00
2023-05-13T22:45:37.385Z,100.00
2023-05-13T22:48:04.998Z,100.00
2023-05-13T22:50:32.180Z,100.00
2023-05-13T22:52:59.328Z,100.00
2023-05-13T22:55:26.791Z,100.00
2023-05-13T22:57:53.986Z,100.00
2023-05-13T23:00:21.598Z,100.00
2023-05-13T23:02:49.150Z,100.00
2023-05-13T23:05:16.574Z,100.00
2023-05-13T23:07:43.691Z,100.00
2023-05-13T23:10:11.438Z,100.00
2023-05-13T23:12:39.150Z,100.00
2023-05-13T23:15:07.262Z,100.00
2023-05-13T23:17:34.711Z,100.00
2023-05-13T23:20:01.890Z,100.00
2023-05-13T23:22:29.147Z,100.00
2023-05-13T23:24:56.533Z,100.00
2023-05-13T23:27:23.647Z,100.00
2023-05-13T23:29:51.024Z,100.00
2023-05-13T23:32:19.268Z,100.00
2023-05-13T23:34:46.476Z,100.00
2023-05-13T23:37:15.687Z,100.00
2023-05-13T23:39:43.208Z,100.00
2023-05-13T23:42:10.615Z,100.00
2023-05-13T23:44:38.590Z,100.00
2023-05-13T23:47:06.110Z,100.00
2023-05-13T23:49:33.261Z,100.00
2023-05-13T23:52:00.514Z,100.00
2023-05-13T23:54:27.916Z,100.00
2023-05-13T23:56:55.100Z,100.00
2023-05-13T23:59:22.222Z,100.00
